sensor_id;sensor_type;location;lat;lon;timestamp;P1;durP1;ratioP1;P2;durP2;ratioP2
17949;SDS011;9100;48.700;9.316;2023-08-06T00:00:35;11.7;;;10.2;;
17949;SDS011;9100;48.700;9.316;2023-08-06T00:01:35;11.7;;;10.2;;
17949;SDS011;9100;48.700;9.316;2023-08-06T00:02:35;11.7;;;10.2;;
17949;SDS011;9100;48.700;9.316;2023-08-06T00:03:26;10.5;;;8.3;;
17949;SDS011;9100;48.700;9.316;2023-08-06T00:03:35;10.5;;;8.3;;
17949;SDS011;9100;48.700;9.316;2023-08-06T00:04:35;10.5;;;8.3;;
17949;SDS011;9100;48.700;9.316;2023-08-06T00:05:35;10.5;;;8.3;;
17949;SDS011;9100;48.700;9.316;2023-08-06T00:06:35;10.5;;;8.3;;
17949;SDS011;9100;48.700;9.316;2023-08-06T00:07:35;10.5;;;8.3;;
17949;SDS011;9100;48.700;9.316;2023-08-06T00:08:26;11.3;;;8.7;;
17949;SDS011;9100;48.700;9.316;2023-08-06T00:08:35;11.3;;;8.7;;
17949;SDS011;9100;48.700;9.316;2023-08-06T00:09:35;11.3;;;8.7;;
17949;SDS011;9100;48.700;9.316;2023-08-06T00:10:35;11.3;;;8.7;;
17949;SDS011;9100;48.700;9.316;2023-08-06T00:11:35;11.3;;;8.7;;
17949;SDS011;9100;48.700;9.316;2023-08-06T00:12:35;11.3;;;8.7;;
17949;SDS011;9100;48.700;9.316;2023-08-06T00:13:26;9.8;;;8.5;;
17949;SDS011;9100;48.700;9.316;2023-08-06T00:13:35;9.8;;;8.5;;
17949;SDS011;9100;48.700;9.316;2023-08-06T00:14:35;9.8;;;8.5;;
17949;SDS011;9100;48.700;9.316;2023-08-06T00:15:35;9.8;;;8.5;;
17949;SDS011;9100;48.700;9.316;2023-08-06T00:16:35;9.8;;;8.5;;
17949;SDS011;9100;48.700;9.316;2023-08-06T00:17:35;9.8;;;8.5;;
17949;SDS011;9100;48.700;9.316;2023-08-06T00:18:26;8.8;;;7.9;;
17949;SDS011;9100;48.700;9.316;2023-08-06T00:18:35;8.8;;;7.9;;
17949;SDS011;9100;48.700;9.316;2023-08-06T00:19:35;8.8;;;7.9;;
17949;SDS011;9100;48.700;9.316;2023-08-06T00:20:35;8.8;;;7.9;;
17949;SDS011;9100;48.700;9.316;2023-08-06T00:21:35;8.8;;;7.9;;
17949;SDS011;9100;48.700;9.316;2023-08-06T00:22:35;8.8;;;7.9;;
17949;SDS011;9100;48.700;9.316;2023-08-06T00:23:26;9.3;;;7.8;;
17949;SDS011;9100;48.700;9.316;2023-08-06T00:23:35;9.3;;;7.8;;
17949;SDS011;9100;48.700;9.316;2023-08-06T00:24:35;9.3;;;7.8;;
17949;SDS011;9100;48.700;9.316;2023-08-06T00:25:36;9.3;;;7.8;;
17949;SDS011;9100;48.700;9.316;2023-08-06T00:26:35;9.3;;;7.8;;
17949;SDS011;9100;48.700;9.316;2023-08-06T00:27:35;9.3;;;7.8;;
17949;SDS011;9100;48.700;9.316;2023-08-06T00:28:26;8.8;;;7.9;;
17949;SDS011;9100;48.700;9.316;2023-08-06T00:28:35;8.8;;;7.9;;
17949;SDS011;9100;48.700;9.316;2023-08-06T00:29:35;8.8;;;7.9;;
17949;SDS011;9100;48.700;9.316;2023-08-06T00:30:35;8.8;;;7.9;;
17949;SDS011;9100;48.700;9.316;2023-08-06T00:31:35;8.8;;;7.9;;
17949;SDS011;9100;48.700;9.316;2023-08-06T00:32:35;8.8;;;7.9;;
17949;SDS011;9100;48.700;9.316;2023-08-06T00:33:26;11.6;;;8.2;;
17949;SDS011;9100;48.700;9.316;2023-08-06T00:33:35;11.6;;;8.2;;
17949;SDS011;9100;48.700;9.316;2023-08-06T00:34:35;11.6;;;8.2;;
17949;SDS011;9100;48.700;9.316;2023-08-06T00:35:35;11.6;;;8.2;;
17949;SDS011;9100;48.700;9.316;2023-08-06T00:36:35;11.6;;;8.2;;
17949;SDS011;9100;48.700;9.316;2023-08-06T00:37:35;11.6;;;8.2;;
17949;SDS011;9100;48.700;9.316;2023-08-06T00:38:26;9.2;;;7.7;;
17949;SDS011;9100;48.700;9.316;2023-08-06T00:38:35;9.2;;;7.7;;
17949;SDS011;9100;48.700;9.316;2023-08-06T00:39:35;9.2;;;7.7;;
17949;SDS011;9100;48.700;9.316;2023-08-06T00:40:35;9.2;;;7.7;;
17949;SDS011;9100;48.700;9.316;2023-08-06T00:41:35;9.2;;;7.7;;
17949;SDS011;9100;48.700;9.316;2023-08-06T00:42:35;9.2;;;7.7;;
17949;SDS011;9100;48.700;9.316;2023-08-06T00:43:26;9;;;7.9;;
17949;SDS011;9100;48.700;9.316;2023-08-06T00:43:35;9;;;7.9;;
17949;SDS011;9100;48.700;9.316;2023-08-06T00:44:35;9;;;7.9;;
17949;SDS011;9100;48.700;9.316;2023-08-06T00:45:36;9;;;7.9;;
17949;SDS011;9100;48.700;9.316;2023-08-06T00:46:35;9;;;7.9;;
17949;SDS011;9100;48.700;9.316;2023-08-06T00:47:35;9;;;7.9;;
17949;SDS011;9100;48.700;9.316;2023-08-06T00:48:26;8.8;;;7.1;;
17949;SDS011;9100;48.700;9.316;2023-08-06T00:48:35;8.8;;;7.1;;
17949;SDS011;9100;48.700;9.316;2023-08-06T00:49:35;8.8;;;7.1;;
17949;SDS011;9100;48.700;9.316;2023-08-06T00:50:35;8.8;;;7.1;;
17949;SDS011;9100;48.700;9.316;2023-08-06T00:51:35;8.8;;;7.1;;
17949;SDS011;9100;48.700;9.316;2023-08-06T00:52:35;8.8;;;7.1;;
17949;SDS011;9100;48.700;9.316;2023-08-06T00:53:26;6.6;;;6;;
17949;SDS011;9100;48.700;9.316;2023-08-06T00:53:35;6.6;;;6;;
17949;SDS011;9100;48.700;9.316;2023-08-06T00:54:35;6.6;;;6;;
17949;SDS011;9100;48.700;9.316;2023-08-06T00:55:35;6.6;;;6;;
17949;SDS011;9100;48.700;9.316;2023-08-06T00:56:35;6.6;;;6;;
17949;SDS011;9100;48.700;9.316;2023-08-06T00:57:35;6.6;;;6;;
17949;SDS011;9100;48.700;9.316;2023-08-06T00:58:26;6.9;;;6.2;;
17949;SDS011;9100;48.700;9.316;2023-08-06T00:58:35;6.9;;;6.2;;
17949;SDS011;9100;48.700;9.316;2023-08-06T00:59:35;6.9;;;6.2;;
17949;SDS011;9100;48.700;9.316;2023-08-06T01:00:35;6.9;;;6.2;;
17949;SDS011;9100;48.700;9.316;2023-08-06T01:01:35;6.9;;;6.2;;
17949;SDS011;9100;48.700;9.316;2023-08-06T01:02:35;6.9;;;6.2;;
17949;SDS011;9100;48.700;9.316;2023-08-06T01:03:26;8.6;;;7.4;;
17949;SDS011;9100;48.700;9.316;2023-08-06T01:03:35;8.6;;;7.4;;
17949;SDS011;9100;48.700;9.316;2023-08-06T01:04:35;8.6;;;7.4;;
17949;SDS011;9100;48.700;9.316;2023-08-06T01:05:35;8.6;;;7.4;;
17949;SDS011;9100;48.700;9.316;2023-08-06T01:06:37;8.6;;;7.4;;
17949;SDS011;9100;48.700;9.316;2023-08-06T01:07:37;8.6;;;7.4;;
17949;SDS011;9100;48.700;9.316;2023-08-06T01:08:28;8.9;;;6.9;;
17949;SDS011;9100;48.700;9.316;2023-08-06T01:08:37;8.9;;;6.9;;
17949;SDS011;9100;48.700;9.316;2023-08-06T01:09:37;8.9;;;6.9;;
17949;SDS011;9100;48.700;9.316;2023-08-06T01:10:40;8.9;;;6.9;;
17949;SDS011;9100;48.700;9.316;2023-08-06T01:11:38;8.9;;;6.9;;
17949;SDS011;9100;48.700;9.316;2023-08-06T01:12:38;8.9;;;6.9;;
17949;SDS011;9100;48.700;9.316;2023-08-06T01:13:28;20.7;;;6.1;;
17949;SDS011;9100;48.700;9.316;2023-08-06T01:13:37;20.7;;;6.1;;
17949;SDS011;9100;48.700;9.316;2023-08-06T01:14:37;20.7;;;6.1;;
17949;SDS011;9100;48.700;9.316;2023-08-06T01:15:38;20.7;;;6.1;;
17949;SDS011;9100;48.700;9.316;2023-08-06T01:16:35;20.7;;;6.1;;
17949;SDS011;9100;48.700;9.316;2023-08-06T01:17:35;20.7;;;6.1;;
17949;SDS011;9100;48.700;9.316;2023-08-06T01:18:26;6;;;5.4;;
17949;SDS011;9100;48.700;9.316;2023-08-06T01:18:35;6;;;5.4;;
17949;SDS011;9100;48.700;9.316;2023-08-06T01:19:35;6;;;5.4;;
17949;SDS011;9100;48.700;9.316;2023-08-06T01:20:35;6;;;5.4;;
17949;SDS011;9100;48.700;9.316;2023-08-06T01:21:35;6;;;5.4;;
17949;SDS011;9100;48.700;9.316;2023-08-06T01:22:35;6;;;5.4;;
17949;SDS011;9100;48.700;9.316;2023-08-06T01:23:26;5.1;;;4.6;;
17949;SDS011;9100;48.700;9.316;2023-08-06T01:23:35;5.1;;;4.6;;
17949;SDS011;9100;48.700;9.316;2023-08-06T01:24:35;5.1;;;4.6;;
17949;SDS011;9100;48.700;9.316;2023-08-06T01:25:35;5.1;;;4.6;;
17949;SDS011;9100;48.700;9.316;2023-08-06T01:26:35;5.1;;;4.6;;
17949;SDS011;9100;48.700;9.316;2023-08-06T01:27:36;5.1;;;4.6;;
17949;SDS011;9100;48.700;9.316;2023-08-06T01:28:27;6.7;;;5.4;;
17949;SDS011;9100;48.700;9.316;2023-08-06T01:28:38;6.7;;;5.4;;
17949;SDS011;9100;48.700;9.316;2023-08-06T01:29:37;6.7;;;5.4;;
17949;SDS011;9100;48.700;9.316;2023-08-06T01:30:35;6.7;;;5.4;;
17949;SDS011;9100;48.700;9.316;2023-08-06T01:31:36;6.7;;;5.4;;
17949;SDS011;9100;48.700;9.316;2023-08-06T01:32:35;6.7;;;5.4;;
17949;SDS011;9100;48.700;9.316;2023-08-06T01:33:26;5.3;;;4.8;;
17949;SDS011;9100;48.700;9.316;2023-08-06T01:33:35;5.3;;;4.8;;
17949;SDS011;9100;48.700;9.316;2023-08-06T01:34:35;5.3;;;4.8;;
17949;SDS011;9100;48.700;9.316;2023-08-06T01:35:35;5.3;;;4.8;;
17949;SDS011;9100;48.700;9.316;2023-08-06T01:36:35;5.3;;;4.8;;
17949;SDS011;9100;48.700;9.316;2023-08-06T01:37:35;5.3;;;4.8;;
17949;SDS011;9100;48.700;9.316;2023-08-06T01:38:26;5.8;;;5.1;;
17949;SDS011;9100;48.700;9.316;2023-08-06T01:38:35;5.8;;;5.1;;
17949;SDS011;9100;48.700;9.316;2023-08-06T01:39:35;5.8;;;5.1;;
17949;SDS011;9100;48.700;9.316;2023-08-06T01:40:35;5.8;;;5.1;;
17949;SDS011;9100;48.700;9.316;2023-08-06T01:41:35;5.8;;;5.1;;
17949;SDS011;9100;48.700;9.316;2023-08-06T01:42:35;5.8;;;5.1;;
17949;SDS011;9100;48.700;9.316;2023-08-06T01:43:26;7.1;;;4.7;;
17949;SDS011;9100;48.700;9.316;2023-08-06T01:43:35;7.1;;;4.7;;
17949;SDS011;9100;48.700;9.316;2023-08-06T01:44:35;7.1;;;4.7;;
17949;SDS011;9100;48.700;9.316;2023-08-06T01:45:35;7.1;;;4.7;;
17949;SDS011;9100;48.700;9.316;2023-08-06T01:46:35;7.1;;;4.7;;
17949;SDS011;9100;48.700;9.316;2023-08-06T01:47:35;7.1;;;4.7;;
17949;SDS011;9100;48.700;9.316;2023-08-06T01:48:26;5.3;;;4.7;;
17949;SDS011;9100;48.700;9.316;2023-08-06T01:48:35;5.3;;;4.7;;
17949;SDS011;9100;48.700;9.316;2023-08-06T01:49:35;5.3;;;4.7;;
17949;SDS011;9100;48.700;9.316;2023-08-06T01:50:35;5.3;;;4.7;;
17949;SDS011;9100;48.700;9.316;2023-08-06T01:51:35;5.3;;;4.7;;
17949;SDS011;9100;48.700;9.316;2023-08-06T01:52:35;5.3;;;4.7;;
17949;SDS011;9100;48.700;9.316;2023-08-06T01:53:26;4;;;3.7;;
17949;SDS011;9100;48.700;9.316;2023-08-06T01:53:35;4;;;3.7;;
17949;SDS011;9100;48.700;9.316;2023-08-06T01:54:35;4;;;3.7;;
17949;SDS011;9100;48.700;9.316;2023-08-06T01:55:35;4;;;3.7;;
17949;SDS011;9100;48.700;9.316;2023-08-06T01:56:35;4;;;3.7;;
17949;SDS011;9100;48.700;9.316;2023-08-06T01:57:35;4;;;3.7;;
17949;SDS011;9100;48.700;9.316;2023-08-06T01:58:26;3.1;;;2.8;;
17949;SDS011;9100;48.700;9.316;2023-08-06T01:58:35;3.1;;;2.8;;
17949;SDS011;9100;48.700;9.316;2023-08-06T01:59:35;3.1;;;2.8;;
17949;SDS011;9100;48.700;9.316;2023-08-06T02:00:35;3.1;;;2.8;;
17949;SDS011;9100;48.700;9.316;2023-08-06T02:01:35;3.1;;;2.8;;
17949;SDS011;9100;48.700;9.316;2023-08-06T02:02:35;3.1;;;2.8;;
17949;SDS011;9100;48.700;9.316;2023-08-06T02:03:26;6;;;3;;
17949;SDS011;9100;48.700;9.316;2023-08-06T02:03:35;6;;;3;;
17949;SDS011;9100;48.700;9.316;2023-08-06T02:04:35;6;;;3;;
17949;SDS011;9100;48.700;9.316;2023-08-06T02:05:35;6;;;3;;
17949;SDS011;9100;48.700;9.316;2023-08-06T02:06:35;6;;;3;;
17949;SDS011;9100;48.700;9.316;2023-08-06T02:07:35;6;;;3;;
17949;SDS011;9100;48.700;9.316;2023-08-06T02:08:26;5.1;;;3.8;;
17949;SDS011;9100;48.700;9.316;2023-08-06T02:08:35;5.1;;;3.8;;
17949;SDS011;9100;48.700;9.316;2023-08-06T02:09:35;5.1;;;3.8;;
17949;SDS011;9100;48.700;9.316;2023-08-06T02:10:35;5.1;;;3.8;;
17949;SDS011;9100;48.700;9.316;2023-08-06T02:11:35;5.1;;;3.8;;
17949;SDS011;9100;48.700;9.316;2023-08-06T02:12:35;5.1;;;3.8;;
17949;SDS011;9100;48.700;9.316;2023-08-06T02:13:26;3;;;2.6;;
17949;SDS011;9100;48.700;9.316;2023-08-06T02:13:35;3;;;2.6;;
17949;SDS011;9100;48.700;9.316;2023-08-06T02:14:35;3;;;2.6;;
17949;SDS011;9100;48.700;9.316;2023-08-06T02:15:35;3;;;2.6;;
17949;SDS011;9100;48.700;9.316;2023-08-06T02:16:35;3;;;2.6;;
17949;SDS011;9100;48.700;9.316;2023-08-06T02:17:35;3;;;2.6;;
17949;SDS011;9100;48.700;9.316;2023-08-06T02:18:26;3.1;;;2.8;;
17949;SDS011;9100;48.700;9.316;2023-08-06T02:18:35;3.1;;;2.8;;
17949;SDS011;9100;48.700;9.316;2023-08-06T02:19:35;3.1;;;2.8;;
17949;SDS011;9100;48.700;9.316;2023-08-06T02:20:35;3.1;;;2.8;;
17949;SDS011;9100;48.700;9.316;2023-08-06T02:21:35;3.1;;;2.8;;
17949;SDS011;9100;48.700;9.316;2023-08-06T02:22:35;3.1;;;2.8;;
17949;SDS011;9100;48.700;9.316;2023-08-06T02:23:26;3;;;2.8;;
17949;SDS011;9100;48.700;9.316;2023-08-06T02:23:35;3;;;2.8;;
17949;SDS011;9100;48.700;9.316;2023-08-06T02:24:35;3;;;2.8;;
17949;SDS011;9100;48.700;9.316;2023-08-06T02:25:35;3;;;2.8;;
17949;SDS011;9100;48.700;9.316;2023-08-06T02:26:35;3;;;2.8;;
17949;SDS011;9100;48.700;9.316;2023-08-06T02:27:36;3;;;2.8;;
17949;SDS011;9100;48.700;9.316;2023-08-06T02:28:26;2.9;;;2.7;;
17949;SDS011;9100;48.700;9.316;2023-08-06T02:28:35;2.9;;;2.7;;
17949;SDS011;9100;48.700;9.316;2023-08-06T02:29:35;2.9;;;2.7;;
17949;SDS011;9100;48.700;9.316;2023-08-06T02:30:35;2.9;;;2.7;;
17949;SDS011;9100;48.700;9.316;2023-08-06T02:31:35;2.9;;;2.7;;
17949;SDS011;9100;48.700;9.316;2023-08-06T02:32:35;2.9;;;2.7;;
17949;SDS011;9100;48.700;9.316;2023-08-06T02:33:26;2.5;;;2.3;;
17949;SDS011;9100;48.700;9.316;2023-08-06T02:33:35;2.5;;;2.3;;
17949;SDS011;9100;48.700;9.316;2023-08-06T02:34:35;2.5;;;2.3;;
17949;SDS011;9100;48.700;9.316;2023-08-06T02:35:35;2.5;;;2.3;;
17949;SDS011;9100;48.700;9.316;2023-08-06T02:36:35;2.5;;;2.3;;
17949;SDS011;9100;48.700;9.316;2023-08-06T02:37:35;2.5;;;2.3;;
17949;SDS011;9100;48.700;9.316;2023-08-06T02:38:26;2.8;;;2.6;;
17949;SDS011;9100;48.700;9.316;2023-08-06T02:38:35;2.8;;;2.6;;
17949;SDS011;9100;48.700;9.316;2023-08-06T02:39:35;2.8;;;2.6;;
17949;SDS011;9100;48.700;9.316;2023-08-06T02:40:35;2.8;;;2.6;;
17949;SDS011;9100;48.700;9.316;2023-08-06T02:41:35;2.8;;;2.6;;
17949;SDS011;9100;48.700;9.316;2023-08-06T02:42:35;2.8;;;2.6;;
17949;SDS011;9100;48.700;9.316;2023-08-06T02:43:26;2.5;;;2.3;;
17949;SDS011;9100;48.700;9.316;2023-08-06T02:43:35;2.5;;;2.3;;
17949;SDS011;9100;48.700;9.316;2023-08-06T02:44:35;2.5;;;2.3;;
17949;SDS011;9100;48.700;9.316;2023-08-06T02:45:35;2.5;;;2.3;;
17949;SDS011;9100;48.700;9.316;2023-08-06T02:46:35;2.5;;;2.3;;
17949;SDS011;9100;48.700;9.316;2023-08-06T02:47:35;2.5;;;2.3;;
17949;SDS011;9100;48.700;9.316;2023-08-06T02:48:26;2.7;;;2.2;;
17949;SDS011;9100;48.700;9.316;2023-08-06T02:48:35;2.7;;;2.2;;
17949;SDS011;9100;48.700;9.316;2023-08-06T02:49:35;2.7;;;2.2;;
17949;SDS011;9100;48.700;9.316;2023-08-06T02:50:38;2.7;;;2.2;;
17949;SDS011;9100;48.700;9.316;2023-08-06T02:51:35;2.7;;;2.2;;
17949;SDS011;9100;48.700;9.316;2023-08-06T02:52:35;2.7;;;2.2;;
17949;SDS011;9100;48.700;9.316;2023-08-06T02:53:26;2.6;;;2.4;;
17949;SDS011;9100;48.700;9.316;2023-08-06T02:53:35;2.6;;;2.4;;
17949;SDS011;9100;48.700;9.316;2023-08-06T02:54:35;2.6;;;2.4;;
17949;SDS011;9100;48.700;9.316;2023-08-06T02:55:35;2.6;;;2.4;;
17949;SDS011;9100;48.700;9.316;2023-08-06T02:56:35;2.6;;;2.4;;
17949;SDS011;9100;48.700;9.316;2023-08-06T02:57:35;2.6;;;2.4;;
17949;SDS011;9100;48.700;9.316;2023-08-06T02:58:26;7;;;2.6;;
17949;SDS011;9100;48.700;9.316;2023-08-06T02:58:35;7;;;2.6;;
17949;SDS011;9100;48.700;9.316;2023-08-06T02:59:35;7;;;2.6;;
17949;SDS011;9100;48.700;9.316;2023-08-06T03:00:35;7;;;2.6;;
17949;SDS011;9100;48.700;9.316;2023-08-06T03:01:35;7;;;2.6;;
17949;SDS011;9100;48.700;9.316;2023-08-06T03:02:35;7;;;2.6;;
17949;SDS011;9100;48.700;9.316;2023-08-06T03:03:26;2.5;;;2.3;;
17949;SDS011;9100;48.700;9.316;2023-08-06T03:03:35;2.5;;;2.3;;
17949;SDS011;9100;48.700;9.316;2023-08-06T03:04:35;2.5;;;2.3;;
17949;SDS011;9100;48.700;9.316;2023-08-06T03:05:35;2.5;;;2.3;;
17949;SDS011;9100;48.700;9.316;2023-08-06T03:06:35;2.5;;;2.3;;
17949;SDS011;9100;48.700;9.316;2023-08-06T03:07:35;2.5;;;2.3;;
17949;SDS011;9100;48.700;9.316;2023-08-06T03:08:26;2.5;;;2.4;;
17949;SDS011;9100;48.700;9.316;2023-08-06T03:08:35;2.5;;;2.4;;
17949;SDS011;9100;48.700;9.316;2023-08-06T03:09:35;2.5;;;2.4;;
17949;SDS011;9100;48.700;9.316;2023-08-06T03:10:35;2.5;;;2.4;;
17949;SDS011;9100;48.700;9.316;2023-08-06T03:11:35;2.5;;;2.4;;
17949;SDS011;9100;48.700;9.316;2023-08-06T03:12:35;2.5;;;2.4;;
17949;SDS011;9100;48.700;9.316;2023-08-06T03:13:26;4.2;;;2.2;;
17949;SDS011;9100;48.700;9.316;2023-08-06T03:13:35;4.2;;;2.2;;
17949;SDS011;9100;48.700;9.316;2023-08-06T03:14:35;4.2;;;2.2;;
17949;SDS011;9100;48.700;9.316;2023-08-06T03:15:35;4.2;;;2.2;;
17949;SDS011;9100;48.700;9.316;2023-08-06T03:16:35;4.2;;;2.2;;
17949;SDS011;9100;48.700;9.316;2023-08-06T03:17:35;4.2;;;2.2;;
17949;SDS011;9100;48.700;9.316;2023-08-06T03:18:26;3.4;;;2.8;;
17949;SDS011;9100;48.700;9.316;2023-08-06T03:18:35;3.4;;;2.8;;
17949;SDS011;9100;48.700;9.316;2023-08-06T03:19:35;3.4;;;2.8;;
17949;SDS011;9100;48.700;9.316;2023-08-06T03:20:35;3.4;;;2.8;;
17949;SDS011;9100;48.700;9.316;2023-08-06T03:21:35;3.4;;;2.8;;
17949;SDS011;9100;48.700;9.316;2023-08-06T03:22:35;3.4;;;2.8;;
17949;SDS011;9100;48.700;9.316;2023-08-06T03:23:26;2.4;;;2.2;;
17949;SDS011;9100;48.700;9.316;2023-08-06T03:23:35;2.4;;;2.2;;
17949;SDS011;9100;48.700;9.316;2023-08-06T03:24:35;2.4;;;2.2;;
17949;SDS011;9100;48.700;9.316;2023-08-06T03:25:35;2.4;;;2.2;;
17949;SDS011;9100;48.700;9.316;2023-08-06T03:26:35;2.4;;;2.2;;
17949;SDS011;9100;48.700;9.316;2023-08-06T03:27:35;2.4;;;2.2;;
17949;SDS011;9100;48.700;9.316;2023-08-06T03:28:26;2.8;;;2;;
17949;SDS011;9100;48.700;9.316;2023-08-06T03:28:35;2.8;;;2;;
17949;SDS011;9100;48.700;9.316;2023-08-06T03:29:35;2.8;;;2;;
17949;SDS011;9100;48.700;9.316;2023-08-06T03:30:35;2.8;;;2;;
17949;SDS011;9100;48.700;9.316;2023-08-06T03:31:35;2.8;;;2;;
17949;SDS011;9100;48.700;9.316;2023-08-06T03:32:35;2.8;;;2;;
17949;SDS011;9100;48.700;9.316;2023-08-06T03:33:26;3.4;;;1.9;;
17949;SDS011;9100;48.700;9.316;2023-08-06T03:33:35;3.4;;;1.9;;
17949;SDS011;9100;48.700;9.316;2023-08-06T03:34:35;3.4;;;1.9;;
17949;SDS011;9100;48.700;9.316;2023-08-06T03:35:35;3.4;;;1.9;;
17949;SDS011;9100;48.700;9.316;2023-08-06T03:36:35;3.4;;;1.9;;
17949;SDS011;9100;48.700;9.316;2023-08-06T03:37:35;3.4;;;1.9;;
17949;SDS011;9100;48.700;9.316;2023-08-06T03:38:26;1.9;;;1.8;;
17949;SDS011;9100;48.700;9.316;2023-08-06T03:38:35;1.9;;;1.8;;
17949;SDS011;9100;48.700;9.316;2023-08-06T03:39:35;1.9;;;1.8;;
17949;SDS011;9100;48.700;9.316;2023-08-06T03:40:35;1.9;;;1.8;;
17949;SDS011;9100;48.700;9.316;2023-08-06T03:41:35;1.9;;;1.8;;
17949;SDS011;9100;48.700;9.316;2023-08-06T03:42:35;1.9;;;1.8;;
17949;SDS011;9100;48.700;9.316;2023-08-06T03:43:26;1.9;;;1.8;;
17949;SDS011;9100;48.700;9.316;2023-08-06T03:43:35;1.9;;;1.8;;
17949;SDS011;9100;48.700;9.316;2023-08-06T03:44:35;1.9;;;1.8;;
17949;SDS011;9100;48.700;9.316;2023-08-06T03:45:35;1.9;;;1.8;;
17949;SDS011;9100;48.700;9.316;2023-08-06T03:46:35;1.9;;;1.8;;
17949;SDS011;9100;48.700;9.316;2023-08-06T03:47:35;1.9;;;1.8;;
17949;SDS011;9100;48.700;9.316;2023-08-06T03:48:26;2.1;;;1.9;;
17949;SDS011;9100;48.700;9.316;2023-08-06T03:48:35;2.1;;;1.9;;
17949;SDS011;9100;48.700;9.316;2023-08-06T03:49:35;2.1;;;1.9;;
17949;SDS011;9100;48.700;9.316;2023-08-06T03:50:35;2.1;;;1.9;;
17949;SDS011;9100;48.700;9.316;2023-08-06T03:51:35;2.1;;;1.9;;
17949;SDS011;9100;48.700;9.316;2023-08-06T03:52:35;2.1;;;1.9;;
17949;SDS011;9100;48.700;9.316;2023-08-06T03:53:26;2.5;;;2.3;;
17949;SDS011;9100;48.700;9.316;2023-08-06T03:53:35;2.5;;;2.3;;
17949;SDS011;9100;48.700;9.316;2023-08-06T03:54:35;2.5;;;2.3;;
17949;SDS011;9100;48.700;9.316;2023-08-06T03:55:35;2.5;;;2.3;;
17949;SDS011;9100;48.700;9.316;2023-08-06T03:56:35;2.5;;;2.3;;
17949;SDS011;9100;48.700;9.316;2023-08-06T03:57:35;2.5;;;2.3;;
17949;SDS011;9100;48.700;9.316;2023-08-06T03:58:26;3.2;;;2.1;;
17949;SDS011;9100;48.700;9.316;2023-08-06T03:58:35;3.2;;;2.1;;
17949;SDS011;9100;48.700;9.316;2023-08-06T03:59:35;3.2;;;2.1;;
17949;SDS011;9100;48.700;9.316;2023-08-06T04:00:35;3.2;;;2.1;;
17949;SDS011;9100;48.700;9.316;2023-08-06T04:01:35;3.2;;;2.1;;
17949;SDS011;9100;48.700;9.316;2023-08-06T04:02:35;3.2;;;2.1;;
17949;SDS011;9100;48.700;9.316;2023-08-06T04:03:26;2.3;;;2;;
17949;SDS011;9100;48.700;9.316;2023-08-06T04:03:35;2.3;;;2;;
17949;SDS011;9100;48.700;9.316;2023-08-06T04:04:35;2.3;;;2;;
17949;SDS011;9100;48.700;9.316;2023-08-06T04:05:36;2.3;;;2;;
17949;SDS011;9100;48.700;9.316;2023-08-06T04:06:35;2.3;;;2;;
17949;SDS011;9100;48.700;9.316;2023-08-06T04:07:35;2.3;;;2;;
17949;SDS011;9100;48.700;9.316;2023-08-06T04:08:26;2.2;;;2;;
17949;SDS011;9100;48.700;9.316;2023-08-06T04:08:35;2.2;;;2;;
17949;SDS011;9100;48.700;9.316;2023-08-06T04:09:41;2.2;;;2;;
17949;SDS011;9100;48.700;9.316;2023-08-06T04:10:35;2.2;;;2;;
17949;SDS011;9100;48.700;9.316;2023-08-06T04:11:35;2.2;;;2;;
17949;SDS011;9100;48.700;9.316;2023-08-06T04:12:35;2.2;;;2;;
17949;SDS011;9100;48.700;9.316;2023-08-06T04:13:26;2.3;;;1.8;;
17949;SDS011;9100;48.700;9.316;2023-08-06T04:13:35;2.3;;;1.8;;
17949;SDS011;9100;48.700;9.316;2023-08-06T04:14:35;2.3;;;1.8;;
17949;SDS011;9100;48.700;9.316;2023-08-06T04:15:35;2.3;;;1.8;;
17949;SDS011;9100;48.700;9.316;2023-08-06T04:16:35;2.3;;;1.8;;
17949;SDS011;9100;48.700;9.316;2023-08-06T04:17:35;2.3;;;1.8;;
17949;SDS011;9100;48.700;9.316;2023-08-06T04:18:26;2;;;1.9;;
17949;SDS011;9100;48.700;9.316;2023-08-06T04:18:35;2;;;1.9;;
17949;SDS011;9100;48.700;9.316;2023-08-06T04:19:35;2;;;1.9;;
17949;SDS011;9100;48.700;9.316;2023-08-06T04:20:42;2;;;1.9;;
17949;SDS011;9100;48.700;9.316;2023-08-06T04:21:35;2;;;1.9;;
17949;SDS011;9100;48.700;9.316;2023-08-06T04:22:35;2;;;1.9;;
17949;SDS011;9100;48.700;9.316;2023-08-06T04:23:26;2.9;;;1.9;;
17949;SDS011;9100;48.700;9.316;2023-08-06T04:23:35;2.9;;;1.9;;
17949;SDS011;9100;48.700;9.316;2023-08-06T04:24:35;2.9;;;1.9;;
17949;SDS011;9100;48.700;9.316;2023-08-06T04:25:35;2.9;;;1.9;;
17949;SDS011;9100;48.700;9.316;2023-08-06T04:26:35;2.9;;;1.9;;
17949;SDS011;9100;48.700;9.316;2023-08-06T04:27:35;2.9;;;1.9;;
17949;SDS011;9100;48.700;9.316;2023-08-06T04:28:26;2.3;;;1.9;;
17949;SDS011;9100;48.700;9.316;2023-08-06T04:28:35;2.3;;;1.9;;
17949;SDS011;9100;48.700;9.316;2023-08-06T04:29:35;2.3;;;1.9;;
17949;SDS011;9100;48.700;9.316;2023-08-06T04:30:36;2.3;;;1.9;;
17949;SDS011;9100;48.700;9.316;2023-08-06T04:31:35;2.3;;;1.9;;
17949;SDS011;9100;48.700;9.316;2023-08-06T04:32:35;2.3;;;1.9;;
17949;SDS011;9100;48.700;9.316;2023-08-06T04:33:26;3.5;;;2.5;;
17949;SDS011;9100;48.700;9.316;2023-08-06T04:33:35;3.5;;;2.5;;
17949;SDS011;9100;48.700;9.316;2023-08-06T04:34:36;3.5;;;2.5;;
17949;SDS011;9100;48.700;9.316;2023-08-06T04:35:35;3.5;;;2.5;;
17949;SDS011;9100;48.700;9.316;2023-08-06T04:36:35;3.5;;;2.5;;
17949;SDS011;9100;48.700;9.316;2023-08-06T04:37:35;3.5;;;2.5;;
17949;SDS011;9100;48.700;9.316;2023-08-06T04:38:26;5;;;2.1;;
17949;SDS011;9100;48.700;9.316;2023-08-06T04:38:35;5;;;2.1;;
17949;SDS011;9100;48.700;9.316;2023-08-06T04:39:35;5;;;2.1;;
17949;SDS011;9100;48.700;9.316;2023-08-06T04:40:35;5;;;2.1;;
17949;SDS011;9100;48.700;9.316;2023-08-06T04:41:35;5;;;2.1;;
17949;SDS011;9100;48.700;9.316;2023-08-06T04:42:35;5;;;2.1;;
17949;SDS011;9100;48.700;9.316;2023-08-06T04:43:26;3;;;2;;
17949;SDS011;9100;48.700;9.316;2023-08-06T04:43:35;3;;;2;;
17949;SDS011;9100;48.700;9.316;2023-08-06T04:44:35;3;;;2;;
17949;SDS011;9100;48.700;9.316;2023-08-06T04:45:35;3;;;2;;
17949;SDS011;9100;48.700;9.316;2023-08-06T04:46:35;3;;;2;;
17949;SDS011;9100;48.700;9.316;2023-08-06T04:47:35;3;;;2;;
17949;SDS011;9100;48.700;9.316;2023-08-06T04:48:26;1.7;;;1.6;;
17949;SDS011;9100;48.700;9.316;2023-08-06T04:48:35;1.7;;;1.6;;
17949;SDS011;9100;48.700;9.316;2023-08-06T04:49:35;1.7;;;1.6;;
17949;SDS011;9100;48.700;9.316;2023-08-06T04:50:35;1.7;;;1.6;;
17949;SDS011;9100;48.700;9.316;2023-08-06T04:51:35;1.7;;;1.6;;
17949;SDS011;9100;48.700;9.316;2023-08-06T04:52:35;1.7;;;1.6;;
17949;SDS011;9100;48.700;9.316;2023-08-06T04:53:26;1.5;;;1.4;;
17949;SDS011;9100;48.700;9.316;2023-08-06T04:53:35;1.5;;;1.4;;
17949;SDS011;9100;48.700;9.316;2023-08-06T04:54:35;1.5;;;1.4;;
17949;SDS011;9100;48.700;9.316;2023-08-06T04:55:35;1.5;;;1.4;;
17949;SDS011;9100;48.700;9.316;2023-08-06T04:56:35;1.5;;;1.4;;
17949;SDS011;9100;48.700;9.316;2023-08-06T04:57:35;1.5;;;1.4;;
17949;SDS011;9100;48.700;9.316;2023-08-06T04:58:26;1.6;;;1.2;;
17949;SDS011;9100;48.700;9.316;2023-08-06T04:58:35;1.6;;;1.2;;
17949;SDS011;9100;48.700;9.316;2023-08-06T04:59:35;1.6;;;1.2;;
17949;SDS011;9100;48.700;9.316;2023-08-06T05:00:35;1.6;;;1.2;;
17949;SDS011;9100;48.700;9.316;2023-08-06T05:01:35;1.6;;;1.2;;
17949;SDS011;9100;48.700;9.316;2023-08-06T05:02:35;1.6;;;1.2;;
17949;SDS011;9100;48.700;9.316;2023-08-06T05:03:26;1.4;;;1.3;;
17949;SDS011;9100;48.700;9.316;2023-08-06T05:03:35;1.4;;;1.3;;
17949;SDS011;9100;48.700;9.316;2023-08-06T05:04:35;1.4;;;1.3;;
17949;SDS011;9100;48.700;9.316;2023-08-06T05:05:36;1.4;;;1.3;;
17949;SDS011;9100;48.700;9.316;2023-08-06T05:06:35;1.4;;;1.3;;
17949;SDS011;9100;48.700;9.316;2023-08-06T05:07:35;1.4;;;1.3;;
17949;SDS011;9100;48.700;9.316;2023-08-06T05:08:26;2.4;;;1.1;;
17949;SDS011;9100;48.700;9.316;2023-08-06T05:08:35;2.4;;;1.1;;
17949;SDS011;9100;48.700;9.316;2023-08-06T05:09:35;2.4;;;1.1;;
17949;SDS011;9100;48.700;9.316;2023-08-06T05:10:35;2.4;;;1.1;;
17949;SDS011;9100;48.700;9.316;2023-08-06T05:11:35;2.4;;;1.1;;
17949;SDS011;9100;48.700;9.316;2023-08-06T05:12:35;2.4;;;1.1;;
17949;SDS011;9100;48.700;9.316;2023-08-06T05:13:26;1.9;;;1.1;;
17949;SDS011;9100;48.700;9.316;2023-08-06T05:13:35;1.9;;;1.1;;
17949;SDS011;9100;48.700;9.316;2023-08-06T05:14:36;1.9;;;1.1;;
17949;SDS011;9100;48.700;9.316;2023-08-06T05:15:35;1.9;;;1.1;;
17949;SDS011;9100;48.700;9.316;2023-08-06T05:16:35;1.9;;;1.1;;
17949;SDS011;9100;48.700;9.316;2023-08-06T05:17:35;1.9;;;1.1;;
17949;SDS011;9100;48.700;9.316;2023-08-06T05:18:26;2.7;;;1.2;;